Time;durP1;ratioP1;P1;durP2;ratioP2;P2;SDS_P1;SDS_P2;PMS_P1;PMS_P2;Temp;Humidity;BMP_temperature;BMP_pressure;BME280_temperature;BME280_humidity;BME280_pressure;Samples;Min_cycle;Max_cycle;Signal;HPM_P1;HPM_P2
2021/11/06 00:01:23;;;;;;;16.02;14.93;;;;;;;;;;5032314;28;20041;-54
2021/11/06 00:03:50;;;;;;;15.15;14.63;;;;;;;;;;5031903;28;20037;-52
2021/11/06 00:06:17;;;;;;;14.60;13.90;;;;;;;;;;5022777;28;20073;-55
2021/11/06 00:08:44;;;;;;;15.93;15.32;;;;;;;;;;5026471;28;20127;-54
2021/11/06 00:11:11;;;;;;;18.60;17.80;;;;;;;;;;5032064;28;20045;-54
2021/11/06 00:13:38;;;;;;;15.15;14.65;;;;;;;;;;5031129;28;20140;-52
2021/11/06 00:16:04;;;;;;;16.08;15.57;;;;;;;;;;5027396;28;20049;-54
2021/11/06 00:18:31;;;;;;;14.93;14.48;;;;;;;;;;5031269;28;20547;-54
2021/11/06 00:20:58;;;;;;;16.10;15.10;;;;;;;;;;5033645;28;20121;-53
2021/11/06 00:23:25;;;;;;;14.73;14.13;;;;;;;;;;5031959;28;20544;-54
2021/11/06 00:25:55;;;;;;;15.00;14.52;;;;;;;;;;5029977;28;20034;-53
2021/11/06 00:28:21;;;;;;;13.82;13.35;;;;;;;;;;5031731;28;20037;-54
2021/11/06 00:30:48;;;;;;;15.05;14.75;;;;;;;;;;5030318;28;20049;-54
2021/11/06 00:33:15;;;;;;;14.82;14.40;;;;;;;;;;5022742;28;20045;-54
2021/11/06 00:35:41;;;;;;;15.30;14.68;;;;;;;;;;5032030;28;20037;-54
2021/11/06 00:38:09;;;;;;;16.17;15.48;;;;;;;;;;5028109;28;20041;-52
2021/11/06 00:40:35;;;;;;;18.17;17.30;;;;;;;;;;5031708;28;20091;-51
2021/11/06 00:43:02;;;;;;;18.85;18.15;;;;;;;;;;5031091;28;20037;-55
2021/11/06 00:45:30;;;;;;;21.13;20.13;;;;;;;;;;5027021;28;20030;-53
2021/11/06 00:47:57;;;;;;;19.52;18.83;;;;;;;;;;5021466;28;20038;-54
2021/11/06 00:50:24;;;;;;;16.88;16.35;;;;;;;;;;5030635;28;20061;-54
2021/11/06 00:52:53;;;;;;;17.27;16.73;;;;;;;;;;5041557;28;20098;-55
2021/11/06 00:55:20;;;;;;;17.77;16.88;;;;;;;;;;5030088;28;20124;-53
2021/11/06 00:57:48;;;;;;;16.40;15.75;;;;;;;;;;5024721;28;20041;-55
2021/11/06 01:00:15;;;;;;;17.58;16.85;;;;;;;;;;5028094;28;20123;-54
2021/11/06 01:02:42;;;;;;;18.70;17.70;;;;;;;;;;5029564;28;20446;-53
2021/11/06 01:05:10;;;;;;;17.67;17.27;;;;;;;;;;5014767;28;20088;-55
2021/11/06 01:07:37;;;;;;;14.38;13.85;;;;;;;;;;5027034;28;20044;-55
2021/11/06 01:10:05;;;;;;;14.75;14.25;;;;;;;;;;5027398;28;20081;-53
2021/11/06 01:12:32;;;;;;;14.77;14.13;;;;;;;;;;5028252;28;20394;-55
2021/11/06 01:14:58;;;;;;;14.15;13.65;;;;;;;;;;5022397;28;20037;-54
2021/11/06 01:17:25;;;;;;;13.07;12.73;;;;;;;;;;5031067;28;20057;-54
2021/11/06 01:19:55;;;;;;;12.68;12.38;;;;;;;;;;5028835;28;20048;-54
2021/11/06 01:22:23;;;;;;;12.00;11.80;;;;;;;;;;5029565;28;20034;-54
2021/11/06 01:24:49;;;;;;;13.68;13.38;;;;;;;;;;5034426;28;20452;-54
2021/11/06 01:27:16;;;;;;;12.75;12.43;;;;;;;;;;5022680;28;20041;-53
2021/11/06 01:29:43;;;;;;;12.48;12.07;;;;;;;;;;5030872;28;20045;-55
2021/11/06 01:32:09;;;;;;;6.07;5.78;;;;;;;;;;5029088;28;20088;-54
2021/11/06 01:34:36;;;;;;;11.15;10.95;;;;;;;;;;5030389;28;20049;-54
2021/11/06 01:37:04;;;;;;;10.00;9.80;;;;;;;;;;5029796;28;20088;-55
2021/11/06 01:39:30;;;;;;;10.77;10.57;;;;;;;;;;5023077;28;20038;-55
2021/11/06 01:41:58;;;;;;;11.70;11.43;;;;;;;;;;5030126;28;20111;-53
2021/11/06 01:44:25;;;;;;;11.60;11.30;;;;;;;;;;5028600;28;20080;-55
2021/11/06 01:46:53;;;;;;;14.20;14.02;;;;;;;;;;5031442;28;20061;-47
2021/11/06 01:49:20;;;;;;;14.60;14.30;;;;;;;;;;5028567;28;20037;-54
2021/11/06 01:51:47;;;;;;;13.27;13.07;;;;;;;;;;5031092;28;20053;-54
2021/11/06 01:54:14;;;;;;;13.05;12.75;;;;;;;;;;5027478;28;20041;-54
2021/11/06 01:56:42;;;;;;;12.73;12.32;;;;;;;;;;5029412;28;20103;-55
2021/11/06 01:59:09;;;;;;;13.35;13.02;;;;;;;;;;5028681;28;20091;-54
2021/11/06 02:01:36;;;;;;;11.38;11.02;;;;;;;;;;5027650;28;20046;-54
2021/11/06 02:04:03;;;;;;;11.25;11.05;;;;;;;;;;5027118;28;20096;-52
2021/11/06 02:06:29;;;;;;;11.02;10.85;;;;;;;;;;5028737;28;20041;-55
2021/11/06 02:08:56;;;;;;;9.80;9.60;;;;;;;;;;5019730;28;20056;-55
2021/11/06 02:11:23;;;;;;;9.68;9.48;;;;;;;;;;5030843;28;20041;-54
2021/11/06 02:13:55;;;;;;;11.43;11.25;;;;;;;;;;5027518;28;20045;-54
2021/11/06 02:16:22;;;;;;;9.02;8.82;;;;;;;;;;5032661;28;20038;-54
2021/11/06 02:18:49;;;;;;;8.60;8.40;;;;;;;;;;5028379;28;20053;-54
2021/11/06 02:21:16;;;;;;;6.57;6.45;;;;;;;;;;5028183;28;20041;-54
2021/11/06 02:23:44;;;;;;;10.93;10.73;;;;;;;;;;5029499;28;20046;-55
2021/11/06 02:26:11;;;;;;;12.10;11.80;;;;;;;;;;5028719;28;20115;-55
2021/11/06 02:28:59;;;;;;;12.27;12.07;;;;;;;;;;5013455;28;20157;-53
2021/11/06 02:31:26;;;;;;;11.43;11.23;;;;;;;;;;5029183;28;20065;-54
2021/11/06 02:33:53;;;;;;;11.05;10.85;;;;;;;;;;5028993;28;20099;-54
2021/11/06 02:36:20;;;;;;;9.38;9.18;;;;;;;;;;5021922;28;20515;-54
2021/11/06 02:38:47;;;;;;;8.27;8.18;;;;;;;;;;5025617;28;20037;-53
2021/11/06 02:41:14;;;;;;;7.57;7.47;;;;;;;;;;5029086;28;20137;-54
2021/11/06 02:43:41;;;;;;;4.28;4.28;;;;;;;;;;5028743;28;20041;-54
2021/11/06 02:46:08;;;;;;;3.47;3.28;;;;;;;;;;5025995;28;20053;-53
2021/11/06 02:48:34;;;;;;;8.18;7.93;;;;;;;;;;5025031;28;20068;-54
2021/11/06 02:51:01;;;;;;;6.15;5.95;;;;;;;;;;5026895;28;20042;-54
2021/11/06 02:53:28;;;;;;;6.70;6.60;;;;;;;;;;5033396;28;20040;-54
2021/11/06 02:55:55;;;;;;;6.32;6.30;;;;;;;;;;5028819;28;20056;-54
2021/11/06 02:58:21;;;;;;;5.88;5.80;;;;;;;;;;5028644;28;20083;-54
2021/11/06 03:00:48;;;;;;;5.75;5.65;;;;;;;;;;5029172;28;20038;-52
2021/11/06 03:03:15;;;;;;;5.97;5.78;;;;;;;;;;5028752;28;20037;-54
2021/11/06 03:05:41;;;;;;;5.10;5.10;;;;;;;;;;5015625;28;20509;-54
2021/11/06 03:08:08;;;;;;;6.43;6.32;;;;;;;;;;5025670;28;20034;-52
2021/11/06 03:10:35;;;;;;;6.68;6.60;;;;;;;;;;5029349;28;20048;-54
2021/11/06 03:13:02;;;;;;;6.90;6.80;;;;;;;;;;5030059;28;20107;-54
2021/11/06 03:15:29;;;;;;;6.07;5.97;;;;;;;;;;5024658;28;20095;-53
2021/11/06 03:17:57;;;;;;;5.43;5.43;;;;;;;;;;5023114;28;20042;-52
2021/11/06 03:20:24;;;;;;;5.03;5.03;;;;;;;;;;5030409;28;20034;-54
2021/11/06 03:22:57;;;;;;;5.32;5.03;;;;;;;;;;5033191;28;20033;-54
2021/11/06 03:25:25;;;;;;;3.05;2.85;;;;;;;;;;5033351;28;20431;-54
2021/11/06 03:27:52;;;;;;;3.58;3.50;;;;;;;;;;5026113;28;20045;-54
2021/11/06 03:30:19;;;;;;;5.07;4.88;;;;;;;;;;5024993;28;20073;-50
2021/11/06 03:32:46;;;;;;;6.18;6.07;;;;;;;;;;5027547;28;20505;-54
2021/11/06 03:35:13;;;;;;;6.47;6.38;;;;;;;;;;5017769;28;20050;-54
2021/11/06 03:37:40;;;;;;;6.18;6.07;;;;;;;;;;5026082;28;20432;-54
2021/11/06 03:40:08;;;;;;;5.13;5.13;;;;;;;;;;5027462;28;20053;-54
2021/11/06 03:42:34;;;;;;;3.97;3.88;;;;;;;;;;5028715;28;20056;-54
2021/11/06 03:45:02;;;;;;;4.53;4.28;;;;;;;;;;5029062;28;20049;-54
2021/11/06 03:47:29;;;;;;;5.15;4.82;;;;;;;;;;5033169;28;20164;-54
2021/11/06 03:49:56;;;;;;;6.05;5.95;;;;;;;;;;5029816;28;20053;-54
2021/11/06 03:52:23;;;;;;;5.75;5.70;;;;;;;;;;5031732;28;20442;-54
2021/11/06 03:54:50;;;;;;;7.18;6.57;;;;;;;;;;5033273;28;20470;-54
2021/11/06 03:57:16;;;;;;;6.20;6.10;;;;;;;;;;5028795;28;20048;-53
2021/11/06 03:59:43;;;;;;;7.25;6.90;;;;;;;;;;5020864;28;20052;-54
2021/11/06 04:02:10;;;;;;;7.55;7.28;;;;;;;;;;5028068;28;20129;-54
2021/11/06 04:04:37;;;;;;;5.43;5.32;;;;;;;;;;5032313;28;20149;-52
2021/11/06 04:07:04;;;;;;;6.63;6.53;;;;;;;;;;5047296;28;20508;-54
2021/11/06 04:09:30;;;;;;;6.55;6.32;;;;;;;;;;5028253;28;20033;-53
2021/11/06 04:11:58;;;;;;;4.30;4.30;;;;;;;;;;5034345;28;20052;-49
2021/11/06 04:14:25;;;;;;;3.70;3.70;;;;;;;;;;5030574;28;20073;-53
2021/11/06 04:16:52;;;;;;;5.68;5.63;;;;;;;;;;5032293;28;20061;-54
2021/11/06 04:19:19;;;;;;;5.97;5.97;;;;;;;;;;5031626;28;20137;-51
2021/11/06 04:21:45;;;;;;;5.28;5.18;;;;;;;;;;5029735;28;20041;-54
2021/11/06 04:24:12;;;;;;;5.82;5.82;;;;;;;;;;5028510;28;20034;-52
2021/11/06 04:26:39;;;;;;;5.00;5.00;;;;;;;;;;5026145;28;20060;-53
2021/11/06 04:29:05;;;;;;;4.78;4.72;;;;;;;;;;5034858;28;20049;-54
2021/11/06 04:31:33;;;;;;;5.65;5.65;;;;;;;;;;5028646;28;20037;-55
2021/11/06 04:34:02;;;;;;;6.68;6.57;;;;;;;;;;5032147;28;20041;-53
2021/11/06 04:36:29;;;;;;;7.55;7.45;;;;;;;;;;5034165;28;20444;-53
2021/11/06 04:38:56;;;;;;;6.07;5.97;;;;;;;;;;5032254;28;20045;-54
2021/11/06 04:41:22;;;;;;;7.97;7.88;;;;;;;;;;5032033;28;20041;-54
2021/11/06 04:43:52;;;;;;;7.10;6.90;;;;;;;;;;5030152;28;20132;-54
2021/11/06 04:46:19;;;;;;;6.97;6.88;;;;;;;;;;5031702;28;20108;-54
2021/11/06 04:48:46;;;;;;;7.30;7.13;;;;;;;;;;5030620;28;20030;-55
2021/11/06 04:51:13;;;;;;;6.70;6.40;;;;;;;;;;5024956;28;20042;-54
2021/11/06 04:53:39;;;;;;;7.85;7.53;;;;;;;;;;5022325;28;20409;-54
2021/11/06 04:56:06;;;;;;;7.05;6.50;;;;;;;;;;5026035;28;20045;-55
2021/11/06 04:58:33;;;;;;;7.75;7.65;;;;;;;;;;5031736;28;20053;-54
2021/11/06 05:01:00;;;;;;;7.15;6.95;;;;;;;;;;5028224;28;20091;-55
2021/11/06 05:03:27;;;;;;;7.50;7.30;;;;;;;;;;5026102;28;20034;-52
2021/11/06 05:05:54;;;;;;;6.47;6.38;;;;;;;;;;5028762;28;20516;-54
2021/11/06 05:08:21;;;;;;;5.85;5.65;;;;;;;;;;5024906;28;20037;-54
2021/11/06 05:10:47;;;;;;;6.85;6.75;;;;;;;;;;5029933;28;20049;-55
2021/11/06 05:13:14;;;;;;;6.13;6.05;;;;;;;;;;5029336;28;20049;-54
2021/11/06 05:15:41;;;;;;;4.03;4.03;;;;;;;;;;5030201;28;20393;-55
2021/11/06 05:18:09;;;;;;;5.25;5.15;;;;;;;;;;5027968;28;20812;-54
2021/11/06 05:20:38;;;;;;;6.95;6.85;;;;;;;;;;5025401;28;20041;-49
2021/11/06 05:23:05;;;;;;;7.38;7.18;;;;;;;;;;5031051;28;20049;-54
2021/11/06 05:25:31;;;;;;;6.25;6.25;;;;;;;;;;5029651;28;20919;-54
2021/11/06 05:27:58;;;;;;;7.63;7.53;;;;;;;;;;5029602;28;20046;-54
2021/11/06 05:30:25;;;;;;;8.85;8.65;;;;;;;;;;5037781;28;20104;-54
2021/11/06 05:32:52;;;;;;;9.27;8.93;;;;;;;;;;5032062;28;20107;-55
2021/11/06 05:35:18;;;;;;;8.65;8.55;;;;;;;;;;5028428;28;20041;-52
2021/11/06 05:37:45;;;;;;;10.07;9.80;;;;;;;;;;5028670;28;20046;-54
2021/11/06 05:40:12;;;;;;;7.93;7.90;;;;;;;;;;5030431;28;20053;-55
2021/11/06 05:42:40;;;;;;;7.75;7.55;;;;;;;;;;5029784;28;20057;-53
2021/11/06 05:45:08;;;;;;;8.00;7.80;;;;;;;;;;5030608;28;20103;-55
2021/11/06 05:47:36;;;;;;;6.85;6.85;;;;;;;;;;5040194;28;20067;-54
2021/11/06 05:50:07;;;;;;;8.32;8.23;;;;;;;;;;5031424;28;20038;-54
2021/11/06 05:52:33;;;;;;;8.15;8.05;;;;;;;;;;5031425;28;20037;-55
2021/11/06 05:55:01;;;;;;;6.78;6.68;;;;;;;;;;5027856;28;20547;-55
2021/11/06 05:57:29;;;;;;;7.72;7.45;;;;;;;;;;5029445;28;20037;-55
2021/11/06 05:59:55;;;;;;;7.85;7.75;;;;;;;;;;5024108;28;20046;-54
2021/11/06 06:02:22;;;;;;;6.30;6.20;;;;;;;;;;5033425;28;20083;-55
2021/11/06 06:04:49;;;;;;;6.43;5.97;;;;;;;;;;5017424;28;20095;-52
2021/11/06 06:07:18;;;;;;;5.75;5.65;;;;;;;;;;5026518;28;20037;-55
2021/11/06 06:09:44;;;;;;;5.43;5.43;;;;;;;;;;5038034;28;20037;-55
2021/11/06 06:12:11;;;;;;;4.85;4.75;;;;;;;;;;5030238;28;20056;-55
2021/11/06 06:14:38;;;;;;;5.13;4.88;;;;;;;;;;5033716;28;20065;-52
2021/11/06 06:17:05;;;;;;;3.55;3.55;;;;;;;;;;5029487;28;20032;-55
2021/11/06 06:19:32;;;;;;;1.20;1.20;;;;;;;;;;5026442;28;20033;-55
2021/11/06 06:21:59;;;;;;;3.92;3.83;;;;;;;;;;5030470;28;20042;-54
2021/11/06 06:24:25;;;;;;;2.65;2.53;;;;;;;;;;5030440;28;20068;-56
2021/11/06 06:26:52;;;;;;;4.45;4.32;;;;;;;;;;5027423;28;20103;-52
2021/11/06 06:29:19;;;;;;;4.45;4.25;;;;;;;;;;5032763;28;20053;-52
2021/11/06 06:31:46;;;;;;;6.38;6.18;;;;;;;;;;5030171;28;20516;-55
2021/11/06 06:34:13;;;;;;;5.97;5.88;;;;;;;;;;5028598;28;20100;-55
2021/11/06 06:36:40;;;;;;;4.30;4.30;;;;;;;;;;5028826;28;20049;-54
2021/11/06 06:39:08;;;;;;;3.95;3.78;;;;;;;;;;5024890;28;20041;-54
2021/11/06 06:41:35;;;;;;;3.40;3.25;;;;;;;;;;5032014;28;20041;-56
2021/11/06 06:44:02;;;;;;;4.78;4.57;;;;;;;;;;5036443;28;20076;-55
2021/11/06 06:46:29;;;;;;;5.90;5.68;;;;;;;;;;5034616;28;20098;-55
2021/11/06 06:48:55;;;;;;;6.03;5.80;;;;;;;;;;5031017;28;20034;-54
2021/11/06 06:51:22;;;;;;;3.53;3.40;;;;;;;;;;5033321;28;20038;-55
2021/11/06 06:53:49;;;;;;;6.40;6.25;;;;;;;;;;5035666;28;20096;-51
2021/11/06 06:56:16;;;;;;;5.35;5.15;;;;;;;;;;5036353;28;20076;-53
2021/11/06 06:58:42;;;;;;;4.35;4.07;;;;;;;;;;5037774;28;20045;-55
2021/11/06 07:01:09;;;;;;;2.63;1.30;;;;;;;;;;5032656;28;20045;-51
2021/11/06 07:03:36;;;;;;;1.60;1.50;;;;;;;;;;5051836;28;20037;-51
2021/11/06 07:06:02;;;;;;;3.10;1.60;;;;;;;;;;5035217;28;20033;-56
2021/11/06 07:08:29;;;;;;;2.58;2.03;;;;;;;;;;5044796;28;20033;-53
2021/11/06 07:10:56;;;;;;;2.50;2.33;;;;;;;;;;5033672;28;20402;-55
2021/11/06 07:13:24;;;;;;;2.10;2.00;;;;;;;;;;5032773;28;20481;-55
2021/11/06 07:15:51;;;;;;;1.75;1.65;;;;;;;;;;5037397;28;20045;-55
2021/11/06 07:18:18;;;;;;;3.13;1.95;;;;;;;;;;5033938;28;20692;-56
2021/11/06 07:20:45;;;;;;;3.92;3.63;;;;;;;;;;5029779;28;20076;-56
2021/11/06 07:23:12;;;;;;;3.53;3.33;;;;;;;;;;5034389;28;20049;-56
2021/11/06 07:25:38;;;;;;;4.30;4.10;;;;;;;;;;5033629;28;20117;-54
2021/11/06 07:28:05;;;;;;;4.03;3.92;;;;;;;;;;5037522;28;20087;-56
2021/11/06 07:30:32;;;;;;;4.20;3.95;;;;;;;;;;5033219;28;20034;-55
2021/11/06 07:32:59;;;;;;;2.03;1.88;;;;;;;;;;5030966;28;20038;-52
2021/11/06 07:35:26;;;;;;;4.43;3.60;;;;;;;;;;5031841;28;20107;-55
2021/11/06 07:37:53;;;;;;;1.00;1.00;;;;;;;;;;5034039;28;20041;-55
2021/11/06 07:40:19;;;;;;;2.55;2.35;;;;;;;;;;5036288;28;20042;-51
2021/11/06 07:42:47;;;;;;;4.32;2.85;;;;;;;;;;5034193;28;20045;-55
2021/11/06 07:45:14;;;;;;;4.35;4.25;;;;;;;;;;5028530;28;20069;-40
2021/11/06 07:47:42;;;;;;;1.80;1.70;;;;;;;;;;5034013;28;20037;-45
2021/11/06 07:50:09;;;;;;;1.17;1.17;;;;;;;;;;5023280;28;20431;-42
2021/11/06 07:52:36;;;;;;;2.28;1.30;;;;;;;;;;5027732;28;20100;-43
2021/11/06 07:55:04;;;;;;;1.10;1.00;;;;;;;;;;5034008;28;21045;-39
2021/11/06 07:57:34;;;;;;;0.93;0.93;;;;;;;;;;5035675;28;20045;-40
2021/11/06 08:00:04;;;;;;;1.02;1.00;;;;;;;;;;5048140;28;20040;-40
2021/11/06 08:02:31;;;;;;;1.45;0.80;;;;;;;;;;5025955;28;20052;-42
2021/11/06 08:05:00;;;;;;;1.60;1.05;;;;;;;;;;5031959;28;20041;-42
2021/11/06 08:07:27;;;;;;;1.63;1.10;;;;;;;;;;5031316;28;20822;-42
2021/11/06 08:09:54;;;;;;;0.95;0.95;;;;;;;;;;5022737;28;20099;-43
2021/11/06 08:12:21;;;;;;;2.25;1.00;;;;;;;;;;5029863;28;20045;-41
2021/11/06 08:14:48;;;;;;;0.98;0.98;;;;;;;;;;5026291;28;20033;-41
2021/11/06 08:17:15;;;;;;;1.33;1.10;;;;;;;;;;5027836;28;20056;-40
2021/11/06 08:19:42;;;;;;;1.15;1.00;;;;;;;;;;5009567;28;21483;-42
2021/11/06 08:22:10;;;;;;;1.10;1.00;;;;;;;;;;5031077;28;20596;-41
2021/11/06 08:24:38;;;;;;;1.10;1.10;;;;;;;;;;5030678;28;20037;-41
2021/11/06 08:27:06;;;;;;;4.47;1.33;;;;;;;;;;5032445;28;20465;-42
2021/11/06 08:29:33;;;;;;;1.10;1.10;;;;;;;;;;5026471;28;20035;-42
2021/11/06 08:31:59;;;;;;;1.45;1.35;;;;;;;;;;5019488;28;20041;-41
2021/11/06 08:34:26;;;;;;;1.00;1.00;;;;;;;;;;5029024;28;20049;-43
2021/11/06 08:36:56;;;;;;;1.13;1.00;;;;;;;;;;5031510;28;20124;-40
2021/11/06 08:39:23;;;;;;;1.02;1.02;;;;;;;;;;5029526;28;20167;-41
2021/11/06 08:41:51;;;;;;;0.90;0.90;;;;;;;;;;5030964;28;20100;-42
2021/11/06 08:44:18;;;;;;;1.23;1.23;;;;;;;;;;5020745;28;20429;-42
2021/11/06 08:46:46;;;;;;;1.77;1.67;;;;;;;;;;5030554;28;20103;-43
2021/11/06 08:49:13;;;;;;;1.40;1.30;;;;;;;;;;5029913;28;20033;-41
2021/11/06 08:51:41;;;;;;;1.30;1.20;;;;;;;;;;5047310;28;20080;-42
2021/11/06 08:54:08;;;;;;;4.13;1.30;;;;;;;;;;5029030;28;20037;-44
2021/11/06 08:56:34;;;;;;;1.33;1.30;;;;;;;;;;5028152;28;20098;-43
2021/11/06 08:59:01;;;;;;;1.35;1.33;;;;;;;;;;5024190;28;20053;-42
2021/11/06 09:01:29;;;;;;;3.13;1.30;;;;;;;;;;5020733;28;20081;-42
2021/11/06 09:03:56;;;;;;;1.33;1.10;;;;;;;;;;5033538;28;20076;-42
2021/11/06 09:06:24;;;;;;;1.30;1.30;;;;;;;;;;5030578;28;20041;-42
2021/11/06 09:08:50;;;;;;;2.50;1.27;;;;;;;;;;5021286;28;20038;-41
2021/11/06 09:11:19;;;;;;;2.45;1.42;;;;;;;;;;5030778;28;20041;-42
2021/11/06 09:13:54;;;;;;;1.60;1.08;;;;;;;;;;5030253;28;20045;-41
2021/11/06 09:16:21;;;;;;;2.03;1.00;;;;;;;;;;5033074;28;20043;-44
2021/11/06 09:18:47;;;;;;;1.70;1.25;;;;;;;;;;5028286;28;20503;-40
2021/11/06 09:21:15;;;;;;;0.98;0.95;;;;;;;;;;5030409;28;20577;-42
2021/11/06 09:23:42;;;;;;;2.30;1.85;;;;;;;;;;5031201;28;20548;-42
2021/11/06 09:26:10;;;;;;;1.25;1.20;;;;;;;;;;5017432;28;20072;-41
2021/11/06 09:28:40;;;;;;;1.17;1.00;;;;;;;;;;5029859;28;20061;-43
2021/11/06 09:31:08;;;;;;;1.10;1.00;;;;;;;;;;5029026;28;20068;-41
2021/11/06 09:33:35;;;;;;;1.70;1.15;;;;;;;;;;5028967;28;20037;-43
2021/11/06 09:36:02;;;;;;;2.72;1.05;;;;;;;;;;5029831;28;20781;-43
2021/11/06 09:38:29;;;;;;;3.90;1.00;;;;;;;;;;5019692;28;20063;-42
2021/11/06 09:41:00;;;;;;;1.00;1.00;;;;;;;;;;5030311;28;20080;-40
2021/11/06 09:43:27;;;;;;;1.13;1.00;;;;;;;;;;5029418;28;20053;-42
2021/11/06 09:45:55;;;;;;;3.50;1.00;;;;;;;;;;5031811;28;20038;-42
2021/11/06 09:48:22;;;;;;;2.15;0.90;;;;;;;;;;5028534;28;20111;-43
2021/11/06 09:50:49;;;;;;;1.65;1.55;;;;;;;;;;5022418;28;20076;-41
2021/11/06 09:53:16;;;;;;;1.55;0.90;;;;;;;;;;5024379;28;20073;-42
2021/11/06 09:55:44;;;;;;;1.52;1.00;;;;;;;;;;5017731;28;20481;-42
2021/11/06 09:58:10;;;;;;;1.27;1.10;;;;;;;;;;5030696;28;20041;-42
2021/11/06 10:00:37;;;;;;;5.40;1.08;;;;;;;;;;5029284;28;20035;-42
2021/11/06 10:03:04;;;;;;;1.10;0.98;;;;;;;;;;5024047;28;20120;-41
2021/11/06 10:05:44;;;;;;;2.13;1.00;;;;;;;;;;5029916;28;20291;-42
2021/11/06 10:08:16;;;;;;;3.80;1.00;;;;;;;;;;5028783;28;20447;-43
2021/11/06 10:10:44;;;;;;;1.80;0.90;;;;;;;;;;5021719;28;20100;-43
2021/11/06 10:13:11;;;;;;;1.15;1.00;;;;;;;;;;5024611;28;20033;-45
2021/11/06 10:15:48;;;;;;;2.78;1.33;;;;;;;;;;5042334;28;20037;-46
2021/11/06 10:18:15;;;;;;;4.22;0.93;;;;;;;;;;5026857;28;20036;-45
2021/11/06 10:20:45;;;;;;;1.23;1.23;;;;;;;;;;5021979;28;20091;-46
2021/11/06 10:23:11;;;;;;;1.00;1.00;;;;;;;;;;5030030;28;20824;-47
2021/11/06 10:25:38;;;;;;;1.00;1.00;;;;;;;;;;5027462;28;20465;-44
2021/11/06 10:28:09;;;;;;;0.90;0.90;;;;;;;;;;5029004;28;20395;-46
2021/11/06 10:30:38;;;;;;;2.22;1.00;;;;;;;;;;5028671;28;20041;-45
2021/11/06 10:33:10;;;;;;;0.80;0.80;;;;;;;;;;5029312;28;20095;-45
2021/11/06 10:35:41;;;;;;;4.25;1.13;;;;;;;;;;5025497;28;20046;-45
2021/11/06 10:38:14;;;;;;;1.02;0.93;;;;;;;;;;5027361;28;20038;-46
2021/11/06 10:40:43;;;;;;;0.90;0.90;;;;;;;;;;5029679;28;20038;-48
2021/11/06 10:43:11;;;;;;;0.90;0.90;;;;;;;;;;5029267;28;20053;-47
2021/11/06 10:45:57;;;;;;;0.90;0.90;;;;;;;;;;5029683;28;20072;-46
2021/11/06 10:48:25;;;;;;;1.55;1.02;;;;;;;;;;5016163;28;20053;-46
2021/11/06 10:51:04;;;;;;;0.95;0.80;;;;;;;;;;5029307;28;20552;-47
2021/11/06 10:53:31;;;;;;;2.42;0.93;;;;;;;;;;5028146;28;20084;-46
2021/11/06 10:56:06;;;;;;;1.00;1.00;;;;;;;;;;5024348;28;20203;-43
2021/11/06 10:58:34;;;;;;;2.80;1.27;;;;;;;;;;5021530;28;20421;-46
2021/11/06 11:01:06;;;;;;;1.60;1.10;;;;;;;;;;5026799;28;20079;-46
2021/11/06 11:03:40;;;;;;;1.00;1.00;;;;;;;;;;5026232;28;20041;-47
2021/11/06 11:06:14;;;;;;;2.50;0.90;;;;;;;;;;5021629;28;20133;-50
2021/11/06 11:08:48;;;;;;;1.80;0.90;;;;;;;;;;5025958;28;20044;-45
2021/11/06 11:11:18;;;;;;;1.10;0.98;;;;;;;;;;5022411;28;20133;-45
2021/11/06 11:13:48;;;;;;;1.35;0.98;;;;;;;;;;5022454;28;20037;-45
2021/11/06 11:16:16;;;;;;;1.13;1.10;;;;;;;;;;5020203;28;20513;-47
2021/11/06 11:18:44;;;;;;;2.92;0.90;;;;;;;;;;5025784;28;20119;-45
2021/11/06 11:21:14;;;;;;;3.90;1.23;;;;;;;;;;5028310;28;20442;-48
2021/11/06 11:23:43;;;;;;;2.17;0.90;;;;;;;;;;5025868;28;20464;-46
2021/11/06 11:26:10;;;;;;;1.58;0.90;;;;;;;;;;5020296;28;20038;-45
2021/11/06 11:28:38;;;;;;;0.90;0.90;;;;;;;;;;5025063;28;20550;-45
2021/11/06 11:31:05;;;;;;;2.05;0.90;;;;;;;;;;5031215;28;20473;-45
2021/11/06 11:33:34;;;;;;;1.63;0.90;;;;;;;;;;5028699;28;20045;-46
2021/11/06 11:36:01;;;;;;;1.45;1.00;;;;;;;;;;5022894;28;20444;-49
2021/11/06 11:38:28;;;;;;;2.22;1.45;;;;;;;;;;5027723;28;20034;-45
2021/11/06 11:41:14;;;;;;;1.55;1.00;;;;;;;;;;5026204;28;20049;-45
2021/11/06 11:44:06;;;;;;;1.33;0.90;;;;;;;;;;5033711;28;20057;-49
2021/11/06 11:46:38;;;;;;;3.33;0.90;;;;;;;;;;5031227;28;20179;-44
2021/11/06 11:49:05;;;;;;;1.13;1.02;;;;;;;;;;5035670;28;20053;-47
2021/11/06 11:51:32;;;;;;;0.80;0.80;;;;;;;;;;5030454;28;20207;-44
2021/11/06 11:54:04;;;;;;;1.80;0.77;;;;;;;;;;5030639;28;20029;-48
2021/11/06 11:56:32;;;;;;;1.80;0.80;;;;;;;;;;5032820;28;20043;-45
2021/11/06 11:59:02;;;;;;;0.95;0.80;;;;;;;;;;5030099;28;20083;-45
2021/11/06 12:01:29;;;;;;;1.10;0.80;;;;;;;;;;5032233;28;21571;-47
2021/11/06 12:03:57;;;;;;;1.15;0.90;;;;;;;;;;5027953;28;20034;-46
2021/11/06 12:06:28;;;;;;;0.80;0.80;;;;;;;;;;5020755;28;20099;-46
2021/11/06 12:09:17;;;;;;;1.40;0.90;;;;;;;;;;5027231;28;20068;-45
2021/11/06 12:11:48;;;;;;;3.58;0.95;;;;;;;;;;5029614;28;20042;-46
2021/11/06 12:14:16;;;;;;;1.20;0.80;;;;;;;;;;5031787;28;20061;-48
2021/11/06 12:16:46;;;;;;;1.75;0.80;;;;;;;;;;5030860;28;20083;-45
2021/11/06 12:19:31;;;;;;;0.90;0.80;;;;;;;;;;5023930;28;20029;-48
2021/11/06 12:22:24;;;;;;;1.42;0.98;;;;;;;;;;5033267;28;20424;-49
2021/11/06 12:24:52;;;;;;;0.80;0.80;;;;;;;;;;5029277;28;20041;-46
2021/11/06 12:27:33;;;;;;;0.90;0.90;;;;;;;;;;5028324;28;20103;-46
2021/11/06 12:29:59;;;;;;;2.47;0.80;;;;;;;;;;5022053;28;20392;-45
2021/11/06 12:32:28;;;;;;;1.00;0.90;;;;;;;;;;5028307;28;20041;-47
2021/11/06 12:34:59;;;;;;;1.25;0.90;;;;;;;;;;5031752;28;20104;-48
2021/11/06 12:37:35;;;;;;;0.80;0.80;;;;;;;;;;5031057;28;20042;-48
2021/11/06 12:40:18;;;;;;;0.80;0.80;;;;;;;;;;5031901;28;20485;-45
2021/11/06 12:43:04;;;;;;;0.80;0.80;;;;;;;;;;5031096;28;20547;-45
2021/11/06 12:45:32;;;;;;;1.50;0.90;;;;;;;;;;5024896;28;20034;-49
2021/11/06 12:48:22;;;;;;;0.90;0.90;;;;;;;;;;5021310;28;20065;-46
2021/11/06 12:50:55;;;;;;;3.33;0.90;;;;;;;;;;5025340;28;20042;-48
2021/11/06 12:53:26;;;;;;;0.80;0.80;;;;;;;;;;5027645;28;20053;-47
2021/11/06 12:56:00;;;;;;;0.80;0.80;;;;;;;;;;5017059;28;20103;-49
2021/11/06 12:58:27;;;;;;;1.60;1.00;;;;;;;;;;5029933;28;20045;-50
2021/11/06 13:00:54;;;;;;;0.80;0.80;;;;;;;;;;5027281;28;20076;-47
2021/11/06 13:03:40;;;;;;;2.83;1.30;;;;;;;;;;5032711;28;20034;-46
2021/11/06 13:06:20;;;;;;;2.35;1.10;;;;;;;;;;5028499;28;20037;-44
2021/11/06 13:09:06;;;;;;;1.00;1.00;;;;;;;;;;5025103;28;20053;-46
2021/11/06 13:11:53;;;;;;;0.80;0.80;;;;;;;;;;5028236;28;20040;-48
2021/11/06 13:14:25;;;;;;;0.90;0.90;;;;;;;;;;5027852;28;20111;-44
2021/11/06 13:16:53;;;;;;;;;;;;;;;;;;5020514;28;20116;-47
2021/11/06 13:19:40;;;;;;;1.58;0.90;;;;;;;;;;5023807;28;20357;-48
2021/11/06 13:22:06;;;;;;;0.90;0.90;;;;;;;;;;5023846;28;20508;-49
2021/11/06 13:24:49;;;;;;;1.77;0.90;;;;;;;;;;5023420;28;20041;-46
2021/11/06 13:27:35;;;;;;;0.90;0.90;;;;;;;;;;5030224;28;20037;-45
2021/11/06 13:30:13;;;;;;;2.03;1.05;;;;;;;;;;5022254;28;20097;-49
2021/11/06 13:32:55;;;;;;;0.90;0.90;;;;;;;;;;5030556;28;20045;-45
2021/11/06 13:35:24;;;;;;;2.50;0.95;;;;;;;;;;5027401;28;20037;-45
2021/11/06 13:38:09;;;;;;;1.30;1.30;;;;;;;;;;5035949;28;20458;-47
2021/11/06 13:40:42;;;;;;;1.42;1.30;;;;;;;;;;5027568;28;20095;-46
2021/11/06 13:43:18;;;;;;;4.30;1.10;;;;;;;;;;5028028;28;20053;-45
2021/11/06 13:46:03;;;;;;;1.23;1.10;;;;;;;;;;5030217;28;20075;-43
2021/11/06 13:48:32;;;;;;;1.58;1.00;;;;;;;;;;5030936;28;20041;-46
2021/11/06 13:51:12;;;;;;;1.85;1.10;;;;;;;;;;5029103;28;20060;-46
2021/11/06 13:53:39;;;;;;;1.20;1.20;;;;;;;;;;5015484;28;20409;-44
2021/11/06 13:56:06;;;;;;;1.45;1.35;;;;;;;;;;5024558;28;20038;-44
2021/11/06 13:58:34;;;;;;;1.35;1.23;;;;;;;;;;5028212;28;20426;-46
2021/11/06 14:01:01;;;;;;;1.20;1.20;;;;;;;;;;5037144;28;20042;-47
2021/11/06 14:03:27;;;;;;;2.17;2.08;;;;;;;;;;5020240;28;20042;-46
2021/11/06 14:05:54;;;;;;;2.63;1.20;;;;;;;;;;5020483;28;20045;-45
2021/11/06 14:08:21;;;;;;;3.63;3.22;;;;;;;;;;5030609;28;21011;-47
2021/11/06 14:10:48;;;;;;;1.60;1.55;;;;;;;;;;5025750;28;20036;-46
2021/11/06 14:13:15;;;;;;;2.55;1.38;;;;;;;;;;5030370;28;20041;-44
2021/11/06 14:15:52;;;;;;;2.47;2.28;;;;;;;;;;5024813;28;20049;-45
2021/11/06 14:18:31;;;;;;;3.95;3.75;;;;;;;;;;5029941;28;20497;-44
2021/11/06 14:21:07;;;;;;;3.17;3.17;;;;;;;;;;5025913;28;20037;-45
2021/11/06 14:23:35;;;;;;;1.60;1.58;;;;;;;;;;5029990;28;20042;-44
2021/11/06 14:26:11;;;;;;;1.90;1.80;;;;;;;;;;5029066;28;20069;-44
2021/11/06 14:29:07;;;;;;;3.63;3.53;;;;;;;;;;5026727;28;20068;-42
2021/11/06 14:31:39;;;;;;;5.20;5.13;;;;;;;;;;5023203;28;20046;-44
2021/11/06 14:34:15;;;;;;;5.07;4.97;;;;;;;;;;5029868;28;20049;-44
2021/11/06 14:36:53;;;;;;;6.05;5.95;;;;;;;;;;5039516;28;20034;-44
2021/11/06 14:39:20;;;;;;;4.90;4.70;;;;;;;;;;5033145;28;20041;-45
2021/11/06 14:41:55;;;;;;;3.17;3.17;;;;;;;;;;5029568;28;20163;-43
2021/11/06 14:44:39;;;;;;;7.00;6.70;;;;;;;;;;5029176;28;20045;-43
2021/11/06 14:47:19;;;;;;;6.18;6.03;;;;;;;;;;5020314;28;20041;-46
2021/11/06 14:49:47;;;;;;;3.35;3.35;;;;;;;;;;5022898;28;20040;-43